Time;durP1;ratioP1;P1;durP2;ratioP2;P2;SDS_P1;SDS_P2;PMS_P1;PMS_P2;Temp;Humidity;BMP_temperature;BMP_pressure;BME280_temperature;BME280_humidity;BME280_pressure;Samples;Min_cycle;Max_cycle;Signal;HPM_P1;HPM_P2
2022/05/24 00:02:25;;;;;;;13.25;9.52;;;17.70;75.10;;;;;;5116763;27;20023;-66
2022/05/24 00:04:51;;;;;;;13.48;9.75;;;17.70;75.20;;;;;;5136271;27;20035;-67
2022/05/24 00:07:17;;;;;;;14.70;10.70;;;17.60;75.20;;;;;;5124293;27;20038;-66
2022/05/24 00:09:42;;;;;;;12.88;9.85;;;17.60;75.30;;;;;;5114598;28;20028;-66
2022/05/24 00:12:08;;;;;;;13.27;9.20;;;17.60;75.30;;;;;;5121415;27;20023;-66
2022/05/24 00:17:18;;;;;;;13.48;9.60;;;17.60;75.40;;;;;;5131665;27;20461;-66
2022/05/24 00:19:45;;;;;;;15.43;10.32;;;17.60;75.40;;;;;;5134095;27;20019;-66
2022/05/24 00:22:10;;;;;;;13.40;9.73;;;17.60;75.50;;;;;;5131017;27;20026;-66
2022/05/24 00:24:36;;;;;;;14.63;11.02;;;17.70;75.60;;;;;;5114610;27;20034;-66
2022/05/24 00:27:01;;;;;;;14.63;10.93;;;17.70;75.50;;;;;;5130632;27;20032;-66
2022/05/24 00:29:27;;;;;;;13.85;9.82;;;17.70;75.50;;;;;;5118226;27;20114;-66
2022/05/24 00:31:53;;;;;;;14.23;11.45;;;17.70;75.50;;;;;;5114658;28;20034;-66
2022/05/24 00:34:18;;;;;;;14.18;10.73;;;17.70;75.50;;;;;;5123572;27;20336;-66
2022/05/24 00:36:44;;;;;;;16.50;12.43;;;17.70;75.50;;;;;;5131154;27;20491;-66
2022/05/24 00:39:09;;;;;;;16.23;11.98;;;17.70;75.50;;;;;;5128771;27;20463;-66
2022/05/24 00:41:42;;;;;;;17.92;13.75;;;17.70;75.40;;;;;;5128528;27;20344;-66
2022/05/24 00:44:32;;;;;;;15.35;12.23;;;17.70;75.50;;;;;;5118698;27;20092;-66
2022/05/24 00:47:02;;;;;;;17.52;13.70;;;17.70;75.50;;;;;;5116766;27;20455;-66
2022/05/24 00:49:33;;;;;;;17.42;14.43;;;17.60;75.50;;;;;;5124350;27;20031;-66
2022/05/24 00:52:03;;;;;;;;;;;17.60;75.50;;;;;;5130844;27;20027;-66
2022/05/24 00:54:29;;;;;;;15.35;12.52;;;17.60;75.40;;;;;;5117666;27;19919;-66
2022/05/24 00:57:27;;;;;;;17.48;14.55;;;17.60;75.40;;;;;;5117344;28;20019;-66
2022/05/24 01:00:12;;;;;;;17.92;15.07;;;17.60;75.30;;;;;;5114179;28;20073;-66
2022/05/24 01:02:38;;;;;;;19.60;16.40;;;17.60;75.40;;;;;;5126514;28;20440;-66
2022/05/24 01:05:10;;;;;;;20.90;16.05;;;17.50;75.30;;;;;;5113801;28;20031;-66
2022/05/24 01:07:37;;;;;;;20.52;15.75;;;17.50;75.30;;;;;;5128758;28;20079;-66
2022/05/24 01:10:22;;;;;;;19.20;15.57;;;17.50;75.20;;;;;;5118806;28;20019;-66
2022/05/24 01:13:06;;;;;;;18.10;14.90;;;17.60;75.10;;;;;;5130559;28;20028;-66
2022/05/24 01:15:32;;;;;;;19.15;15.23;;;17.50;75.00;;;;;;5128128;28;20031;-66
2022/05/24 01:17:59;;;;;;;17.80;14.68;;;17.60;74.90;;;;;;5116966;27;20119;-66
2022/05/24 01:20:25;;;;;;;20.05;15.68;;;17.50;74.70;;;;;;5132496;28;20023;-66
2022/05/24 01:23:17;;;;;;;21.17;16.20;;;17.60;75.30;;;;;;5130854;27;20035;-66
2022/05/24 01:26:02;;;;;;;21.83;15.40;;;17.60;74.60;;;;;;5114319;28;20027;-66
2022/05/24 01:28:44;;;;;;;22.92;16.05;;;17.60;74.50;;;;;;5119326;28;20053;-66
2022/05/24 01:31:09;;;;;;;;;;;17.50;74.40;;;;;;5098971;28;21360;-66
2022/05/24 01:36:24;;;;;;;20.15;15.77;;;17.40;74.40;;;;;;5116219;28;20027;-66
2022/05/24 01:38:54;;;;;;;21.73;16.90;;;17.30;74.40;;;;;;5126833;28;20048;-66
2022/05/24 01:41:24;;;;;;;23.40;18.20;;;17.30;74.40;;;;;;5113422;28;20046;-66
2022/05/24 01:43:53;;;;;;;25.83;18.37;;;17.30;74.40;;;;;;5129705;27;20031;-66
2022/05/24 01:46:25;;;;;;;23.10;18.67;;;17.30;74.40;;;;;;5119831;27;20073;-66
2022/05/24 01:48:56;;;;;;;24.60;18.27;;;17.30;74.30;;;;;;5128239;27;20027;-66
2022/05/24 01:51:26;;;;;;;24.52;19.20;;;17.30;74.30;;;;;;5120634;27;20111;-67
2022/05/24 01:53:55;;;;;;;24.13;18.40;;;17.30;74.20;;;;;;5120176;27;20416;-66
2022/05/24 01:56:28;;;;;;;26.65;19.88;;;17.30;74.20;;;;;;5130632;27;20024;-66
2022/05/24 01:58:57;;;;;;;27.50;20.00;;;17.30;74.20;;;;;;5130217;27;20088;-66
2022/05/24 02:01:50;;;;;;;21.52;17.67;;;17.30;74.20;;;;;;5137366;27;20033;-67
2022/05/24 02:04:18;;;;;;;24.10;17.83;;;17.20;74.00;;;;;;5130814;27;20473;-66
2022/05/24 02:06:44;;;;;;;21.52;17.52;;;17.20;74.10;;;;;;5122662;27;20034;-66
2022/05/24 02:09:11;;;;;;;22.20;17.75;;;17.20;74.10;;;;;;5130163;27;20027;-67
2022/05/24 02:11:38;;;;;;;19.13;16.08;;;17.20;74.10;;;;;;5115942;27;20036;-66
2022/05/24 02:14:21;;;;;;;20.27;15.63;;;17.20;74.10;;;;;;5120619;27;20079;-66
2022/05/24 02:17:00;;;;;;;21.92;15.23;;;17.10;74.00;;;;;;5122641;27;20029;-66
2022/05/24 02:19:28;;;;;;;18.50;13.93;;;17.10;74.00;;;;;;5130749;27;20019;-66
2022/05/24 02:22:00;;;;;;;18.65;14.60;;;17.10;73.90;;;;;;5117234;28;20028;-66
2022/05/24 02:24:26;;;;;;;19.75;13.95;;;17.10;73.80;;;;;;5120935;27;20068;-66
2022/05/24 02:26:53;;;;;;;18.23;13.02;;;17.10;73.70;;;;;;5123270;27;20023;-66
2022/05/24 02:29:20;;;;;;;17.98;13.18;;;17.10;73.70;;;;;;5133868;27;20080;-66
2022/05/24 02:31:46;;;;;;;17.42;12.13;;;17.10;74.30;;;;;;5116357;27;20032;-66
2022/05/24 02:34:12;;;;;;;18.27;11.48;;;17.10;73.60;;;;;;5118809;27;20031;-66
2022/05/24 02:36:38;;;;;;;15.98;11.70;;;17.00;73.60;;;;;;5122661;27;20034;-66
2022/05/24 02:39:04;;;;;;;15.05;10.10;;;17.00;73.40;;;;;;5122545;27;20040;-66
2022/05/24 02:41:33;;;;;;;15.38;9.93;;;17.00;73.40;;;;;;5121247;27;20047;-66
2022/05/24 02:44:11;;;;;;;14.07;9.20;;;17.00;73.40;;;;;;5116163;28;20451;-66
2022/05/24 02:46:40;;;;;;;13.23;8.45;;;16.90;73.20;;;;;;5119675;27;20417;-66
2022/05/24 02:49:07;;;;;;;14.10;8.60;;;16.90;73.30;;;;;;5117255;27;20036;-66
2022/05/24 02:51:34;;;;;;;12.65;8.20;;;16.90;73.20;;;;;;5122045;27;20039;-66
2022/05/24 02:54:00;;;;;;;12.57;7.63;;;16.90;73.00;;;;;;5121387;27;20062;-66
2022/05/24 02:56:27;;;;;;;11.57;7.82;;;16.80;72.90;;;;;;5128752;27;20035;-66
2022/05/24 02:58:55;;;;;;;11.88;6.85;;;16.80;72.90;;;;;;5116976;28;20019;-66
2022/05/24 03:01:23;;;;;;;12.05;7.40;;;16.70;72.90;;;;;;5122422;27;20049;-66
2022/05/24 03:03:52;;;;;;;12.90;6.75;;;16.70;72.90;;;;;;5126099;27;20027;-66
2022/05/24 03:06:19;;;;;;;13.45;6.45;;;16.70;72.90;;;;;;5120478;27;20047;-66
2022/05/24 03:14:14;;;;;;;9.02;6.00;;;16.70;72.70;;;;;;5121351;27;20114;-66
2022/05/24 03:14:14;;;;;;;11.10;5.97;;;16.60;72.60;;;;;;5116350;27;20043;-66
2022/05/24 03:16:45;;;;;;;14.48;6.40;;;16.60;72.60;;;;;;5123275;27;20015;-66
2022/05/24 03:19:11;;;;;;;9.68;5.15;;;16.60;72.60;;;;;;5137064;27;20045;-66
2022/05/24 03:21:36;;;;;;;11.90;5.65;;;16.50;72.60;;;;;;5122502;27;20016;-66
2022/05/24 03:24:02;;;;;;;9.27;5.15;;;16.50;72.50;;;;;;5114586;27;20525;-66
2022/05/24 03:26:27;;;;;;;10.35;5.00;;;16.50;72.50;;;;;;5119843;27;20077;-66
2022/05/24 03:28:58;;;;;;;9.75;4.78;;;16.50;72.50;;;;;;5136710;27;20039;-66
2022/05/24 03:31:24;;;;;;;10.00;4.63;;;16.50;72.40;;;;;;5122645;27;20027;-66
2022/05/24 03:33:51;;;;;;;10.07;4.38;;;16.40;72.30;;;;;;5114460;27;20028;-66
2022/05/24 03:36:19;;;;;;;9.63;4.60;;;16.40;72.40;;;;;;5120061;27;20366;-66
2022/05/24 03:38:46;;;;;;;8.75;4.57;;;16.40;72.40;;;;;;5125818;27;20610;-66
2022/05/24 03:41:11;;;;;;;12.13;5.25;;;16.40;72.30;;;;;;5123869;27;20031;-66
2022/05/24 03:43:37;;;;;;;9.68;4.43;;;16.40;72.20;;;;;;5122873;27;20363;-66
2022/05/24 03:46:06;;;;;;;11.07;4.30;;;16.40;72.20;;;;;;5119559;27;20035;-66
2022/05/24 03:48:32;;;;;;;9.20;4.40;;;16.40;72.20;;;;;;5136557;27;20034;-66
2022/05/24 03:50:57;;;;;;;9.93;4.57;;;16.40;72.10;;;;;;5127700;27;20027;-66
2022/05/24 03:53:24;;;;;;;8.38;4.20;;;16.40;72.10;;;;;;5116451;27;20212;-66
2022/05/24 03:55:50;;;;;;;11.43;5.03;;;16.40;72.10;;;;;;5115421;28;20038;-66
2022/05/24 03:58:16;;;;;;;7.47;4.10;;;16.40;72.00;;;;;;5115441;27;20031;-66
2022/05/24 04:00:42;;;;;;;10.23;4.43;;;16.40;72.00;;;;;;5126414;27;20095;-66
2022/05/24 04:03:08;;;;;;;12.25;5.07;;;16.40;71.90;;;;;;5119251;27;20483;-66
2022/05/24 04:05:34;;;;;;;10.98;4.53;;;16.40;71.80;;;;;;5131781;27;20428;-66
2022/05/24 04:08:01;;;;;;;7.90;4.35;;;16.40;71.80;;;;;;5119293;27;20108;-67
2022/05/24 04:10:28;;;;;;;9.07;4.05;;;16.40;71.80;;;;;;5123528;27;20158;-66
2022/05/24 04:12:53;;;;;;;8.98;4.03;;;16.40;71.80;;;;;;5120192;27;20065;-66
2022/05/24 04:15:19;;;;;;;8.38;3.88;;;16.40;71.60;;;;;;5126507;27;20418;-66
2022/05/24 04:17:46;;;;;;;10.63;4.32;;;16.40;71.60;;;;;;5115018;27;20055;-66
2022/05/24 04:20:14;;;;;;;8.65;4.20;;;16.40;71.60;;;;;;5118978;27;20023;-66
2022/05/24 04:22:40;;;;;;;8.38;4.15;;;16.40;71.60;;;;;;5118784;27;20436;-66
2022/05/24 04:25:07;;;;;;;10.68;5.28;;;16.40;71.60;;;;;;5126786;27;20090;-66
2022/05/24 04:27:33;;;;;;;9.18;4.65;;;16.40;71.50;;;;;;5126244;27;20019;-66
2022/05/24 04:29:59;;;;;;;9.85;4.28;;;16.50;71.40;;;;;;5116910;27;20533;-66
2022/05/24 04:32:25;;;;;;;11.30;4.97;;;16.40;71.30;;;;;;5129168;27;20308;-66
2022/05/24 04:34:50;;;;;;;11.65;4.70;;;16.40;72.10;;;;;;5119423;27;20019;-66
2022/05/24 04:37:17;;;;;;;10.20;4.82;;;16.40;71.40;;;;;;5120845;27;20042;-67
2022/05/24 04:39:42;;;;;;;11.38;5.03;;;16.40;71.40;;;;;;5135645;27;20038;-66
2022/05/24 04:42:21;;;;;;;10.32;4.78;;;16.30;71.30;;;;;;5119612;27;20016;-66
2022/05/24 04:45:00;;;;;;;9.90;4.60;;;16.30;71.30;;;;;;5122503;27;20034;-66
2022/05/24 04:47:29;;;;;;;9.73;4.28;;;16.40;71.30;;;;;;5116950;27;20051;-66
2022/05/24 04:49:56;;;;;;;10.20;5.03;;;16.40;71.30;;;;;;5115576;28;20028;-65
2022/05/24 04:52:30;;;;;;;10.43;5.18;;;16.40;71.10;;;;;;5127230;27;20035;-65
2022/05/24 04:54:56;;;;;;;9.77;4.65;;;16.40;71.10;;;;;;5119844;27;20031;-66
2022/05/24 04:57:22;;;;;;;9.40;5.05;;;16.50;71.10;;;;;;5125432;27;20080;-66
2022/05/24 04:59:48;;;;;;;9.85;5.55;;;16.40;71.10;;;;;;5135564;27;20066;-65
2022/05/24 05:02:14;;;;;;;11.68;5.25;;;16.40;71.10;;;;;;5135466;27;20106;-65
2022/05/24 05:04:40;;;;;;;9.35;5.05;;;16.40;71.10;;;;;;5136110;27;20031;-65
2022/05/24 05:07:06;;;;;;;10.77;5.32;;;16.40;71.00;;;;;;5135350;27;20118;-65
2022/05/24 05:09:36;;;;;;;9.32;5.07;;;16.40;71.00;;;;;;5117471;28;20049;-65
2022/05/24 05:12:03;;;;;;;9.88;5.30;;;16.40;71.00;;;;;;5114817;28;20444;-65
2022/05/24 05:14:29;;;;;;;11.23;5.03;;;16.40;70.90;;;;;;5114960;28;20046;-65
2022/05/24 05:16:57;;;;;;;9.25;5.32;;;16.40;70.90;;;;;;5115214;28;20034;-66
2022/05/24 05:19:23;;;;;;;11.02;5.80;;;16.40;71.00;;;;;;5118350;27;20413;-66
2022/05/24 05:21:48;;;;;;;9.15;5.35;;;16.40;71.00;;;;;;5139718;27;20034;-65
2022/05/24 05:24:15;;;;;;;11.10;5.00;;;16.30;70.90;;;;;;5136681;27;20019;-65
2022/05/24 05:26:40;;;;;;;11.00;6.00;;;16.40;71.10;;;;;;5119490;27;20098;-65
2022/05/24 05:29:06;;;;;;;9.23;5.55;;;16.30;71.10;;;;;;5127620;27;20065;-65
2022/05/24 05:31:32;;;;;;;11.18;6.20;;;16.40;71.10;;;;;;5126295;27;20062;-67
2022/05/24 05:33:59;;;;;;;10.32;6.05;;;16.30;71.00;;;;;;5125567;27;20065;-66
2022/05/24 05:36:27;;;;;;;11.32;6.28;;;16.40;71.10;;;;;;5138258;27;20035;-66
2022/05/24 05:38:54;;;;;;;10.05;6.05;;;16.30;71.00;;;;;;5133394;27;21625;-67
2022/05/24 05:41:27;;;;;;;12.68;5.75;;;16.30;71.00;;;;;;5126803;27;20073;-66
2022/05/24 05:43:54;;;;;;;9.43;6.28;;;16.40;71.00;;;;;;5117463;27;20104;-67
2022/05/24 05:46:19;;;;;;;9.60;6.10;;;16.30;70.90;;;;;;5139342;27;20030;-67
2022/05/24 05:48:46;;;;;;;10.80;7.22;;;16.40;70.90;;;;;;5134782;27;20106;-67
2022/05/24 05:51:14;;;;;;;10.88;6.47;;;16.40;70.90;;;;;;5118148;28;20463;-66
2022/05/24 05:53:40;;;;;;;10.63;5.97;;;16.40;70.80;;;;;;5128296;27;20023;-67
2022/05/24 05:56:17;;;;;;;8.88;5.57;;;16.40;70.70;;;;;;5127314;27;20383;-66
2022/05/24 05:58:43;;;;;;;12.60;6.53;;;16.40;70.70;;;;;;5134261;27;20447;-66
2022/05/24 06:01:28;;;;;;;11.48;6.38;;;16.40;70.70;;;;;;5118420;28;20031;-66
2022/05/24 06:03:56;;;;;;;12.40;6.25;;;16.40;70.50;;;;;;5133342;27;20031;-67
2022/05/24 06:06:24;;;;;;;11.40;6.80;;;16.40;70.40;;;;;;5118831;27;20332;-66
2022/05/24 06:08:50;;;;;;;11.48;7.85;;;16.40;70.40;;;;;;5131283;27;20027;-67
2022/05/24 06:11:15;;;;;;;13.20;6.78;;;16.40;70.40;;;;;;5116337;27;20020;-64
2022/05/24 06:13:41;;;;;;;11.27;7.25;;;16.40;70.40;;;;;;5105347;27;20051;-66
2022/05/24 06:16:10;;;;;;;10.52;6.30;;;16.40;70.40;;;;;;5118555;27;20026;-66
2022/05/24 06:18:36;;;;;;;13.07;6.57;;;16.40;70.30;;;;;;5134552;27;20035;-65
2022/05/24 06:21:02;;;;;;;12.20;7.25;;;16.40;70.20;;;;;;5135131;27;20114;-63
2022/05/24 06:23:27;;;;;;;10.43;7.20;;;16.40;70.10;;;;;;5138591;27;20077;-65
2022/05/24 06:25:53;;;;;;;13.73;6.78;;;16.50;70.20;;;;;;5119309;27;20032;-65
2022/05/24 06:28:20;;;;;;;10.73;7.00;;;16.50;70.10;;;;;;5136051;27;20083;-66
2022/05/24 06:30:46;;;;;;;10.65;6.38;;;16.50;70.00;;;;;;5119828;27;20039;-66
2022/05/24 06:33:12;;;;;;;10.45;6.93;;;16.50;70.00;;;;;;5116841;27;20505;-67
2022/05/24 06:35:39;;;;;;;10.32;6.95;;;16.50;69.90;;;;;;5116563;27;20023;-66
2022/05/24 06:38:06;;;;;;;10.65;7.20;;;16.50;70.00;;;;;;5116070;27;20051;-66
2022/05/24 06:40:33;;;;;;;10.85;6.93;;;16.50;70.00;;;;;;5119371;27;20027;-66
2022/05/24 06:42:58;;;;;;;11.98;6.85;;;16.50;69.90;;;;;;5117826;28;20028;-66
2022/05/24 06:45:24;;;;;;;10.10;6.90;;;16.50;69.70;;;;;;5117715;27;20527;-66
2022/05/24 06:47:50;;;;;;;11.60;6.53;;;16.60;69.70;;;;;;5117328;27;20440;-66
2022/05/24 06:50:16;;;;;;;10.85;6.47;;;16.60;69.70;;;;;;5134746;27;20364;-66
2022/05/24 06:52:43;;;;;;;11.85;6.18;;;16.60;69.60;;;;;;5136933;27;20360;-66
2022/05/24 06:55:10;;;;;;;10.85;6.15;;;16.60;69.40;;;;;;5123793;27;20026;-66
2022/05/24 06:57:36;;;;;;;10.68;7.40;;;16.60;69.30;;;;;;5131418;27;20036;-66
2022/05/24 07:02:49;;;;;;;11.32;6.50;;;16.50;69.10;;;;;;5116857;28;20081;-66
2022/05/24 07:05:20;;;;;;;11.63;6.78;;;16.50;69.00;;;;;;5123085;27;20119;-66
2022/05/24 07:07:46;;;;;;;12.35;7.10;;;16.50;68.90;;;;;;5118386;27;20031;-66
2022/05/24 07:10:17;;;;;;;11.48;7.07;;;16.60;68.90;;;;;;5132364;27;20024;-66
2022/05/24 07:12:45;;;;;;;10.63;6.63;;;16.60;68.80;;;;;;5119191;27;20086;-66
2022/05/24 07:15:10;;;;;;;9.77;7.20;;;16.60;68.70;;;;;;5114997;27;20352;-66
2022/05/24 07:17:37;;;;;;;10.98;7.00;;;16.60;68.70;;;;;;5116362;27;20023;-66
2022/05/24 07:20:03;;;;;;;9.85;6.35;;;16.80;68.60;;;;;;5116442;27;20615;-65
2022/05/24 07:22:29;;;;;;;11.02;7.75;;;17.00;68.00;;;;;;5123778;27;20027;-66
2022/05/24 07:24:55;;;;;;;11.15;7.28;;;17.20;67.50;;;;;;5124637;27;20027;-66
2022/05/24 07:27:22;;;;;;;12.07;7.63;;;17.40;66.90;;;;;;5123507;27;20019;-66
2022/05/24 07:29:48;;;;;;;11.20;7.60;;;17.50;66.50;;;;;;5120786;27;20141;-66
2022/05/24 07:32:14;;;;;;;10.77;7.28;;;17.50;66.50;;;;;;5126346;27;20053;-66
2022/05/24 07:34:40;;;;;;;12.50;7.38;;;17.60;66.40;;;;;;5120262;27;20032;-68
2022/05/24 07:37:08;;;;;;;12.32;8.07;;;17.60;66.20;;;;;;5117602;27;20049;-65
2022/05/24 07:39:34;;;;;;;10.93;7.53;;;17.60;66.00;;;;;;5127685;27;20036;-66
2022/05/24 07:47:31;;;;;;;8.70;6.15;;;17.80;65.50;;;;;;5124589;27;20538;-65
2022/05/24 07:49:58;;;;;;;9.48;6.15;;;17.90;65.30;;;;;;5114991;27;20055;-65
2022/05/24 07:52:23;;;;;;;9.50;6.05;;;17.90;65.20;;;;;;5116175;27;20109;-65
2022/05/24 07:54:49;;;;;;;9.60;6.28;;;17.90;65.00;;;;;;5120371;27;20027;-65
2022/05/24 07:57:14;;;;;;;9.55;4.88;;;17.90;65.00;;;;;;5116253;27;20027;-66
2022/05/24 07:59:43;;;;;;;8.57;5.20;;;17.90;65.00;;;;;;5126217;27;20023;-66
2022/05/24 08:02:09;;;;;;;8.60;4.80;;;18.00;64.60;;;;;;5115543;27;20441;-66
2022/05/24 08:04:35;;;;;;;8.57;4.30;;;18.20;63.80;;;;;;5114183;27;20034;-66
2022/05/24 08:07:01;;;;;;;11.70;4.10;;;18.60;63.00;;;;;;5120442;27;20035;-66
2022/05/24 08:09:27;;;;;;;7.43;3.72;;;18.90;62.10;;;;;;5128845;27;20405;-66
2022/05/24 08:11:52;;;;;;;8.55;4.40;;;18.90;61.80;;;;;;5070536;28;20035;-66
2022/05/24 08:14:18;;;;;;;7.03;3.92;;;18.90;61.30;;;;;;5115217;28;20036;-66
2022/05/24 08:16:44;;;;;;;7.57;4.05;;;18.90;61.30;;;;;;5117312;27;20032;-66
2022/05/24 08:19:09;;;;;;;7.15;4.20;;;19.30;60.80;;;;;;5114698;28;20050;-66
2022/05/24 08:21:36;;;;;;;7.32;4.05;;;19.50;59.90;;;;;;5106115;27;20031;-66
2022/05/24 08:24:02;;;;;;;7.60;4.70;;;19.50;59.40;;;;;;5118047;27;20034;-67
2022/05/24 08:26:28;;;;;;;7.85;4.40;;;19.30;59.20;;;;;;5117101;27;20031;-65
2022/05/24 08:28:53;;;;;;;8.15;4.68;;;19.00;59.30;;;;;;5114495;28;20039;-65
2022/05/24 08:31:19;;;;;;;7.68;4.07;;;18.90;59.80;;;;;;5121142;27;20031;-67
2022/05/24 08:33:46;;;;;;;8.88;3.03;;;19.10;59.40;;;;;;5129401;27;20035;-66
2022/05/24 08:36:13;;;;;;;5.38;2.80;;;19.40;58.70;;;;;;5121419;27;20027;-66
2022/05/24 08:38:40;;;;;;;4.45;2.35;;;19.50;58.00;;;;;;5113993;28;20097;-66
2022/05/24 08:41:35;;;;;;;4.85;2.30;;;19.70;57.70;;;;;;5114575;27;20347;-66
2022/05/24 08:50:20;;;;;;;4.13;2.30;;;20.70;56.40;;;;;;5115052;28;20332;-66
2022/05/24 08:52:57;;;;;;;6.35;2.20;;;20.60;55.80;;;;;;5129251;27;20039;-66
2022/05/24 08:55:24;;;;;;;5.25;2.13;;;20.50;55.70;;;;;;5119826;27;20077;-66
2022/05/24 08:57:56;;;;;;;5.28;2.22;;;20.40;55.70;;;;;;5115992;27;20057;-66
2022/05/24 09:00:26;;;;;;;6.13;2.58;;;20.20;55.90;;;;;;5116900;27;20016;-66
2022/05/24 09:02:52;;;;;;;6.60;2.50;;;20.00;56.40;;;;;;5119956;27;20038;-66
2022/05/24 09:05:32;;;;;;;4.28;2.20;;;19.70;56.90;;;;;;5137095;27;20031;-66
2022/05/24 09:08:29;;;;;;;5.75;2.50;;;19.40;58.30;;;;;;5133195;28;20164;-66
2022/05/24 09:11:06;;;;;;;4.22;2.10;;;19.00;58.80;;;;;;5131164;27;20114;-67
2022/05/24 09:14:07;;;;;;;6.00;2.47;;;18.70;60.00;;;;;;5125097;27;20028;-66
2022/05/24 09:16:49;;;;;;;5.00;2.67;;;18.50;60.70;;;;;;5119561;28;20023;-66
2022/05/24 09:19:23;;;;;;;4.88;2.13;;;18.50;61.20;;;;;;5133661;27;20435;-66
2022/05/24 09:21:52;;;;;;;4.68;2.00;;;18.50;61.40;;;;;;5119093;28;20106;-66
2022/05/24 09:24:42;;;;;;;3.63;1.80;;;18.50;61.50;;;;;;5101698;28;20106;-66
2022/05/24 09:27:11;;;;;;;4.13;1.92;;;18.50;61.30;;;;;;5096609;28;20115;-66
2022/05/24 09:29:54;;;;;;;3.97;2.20;;;18.70;61.20;;;;;;5114835;28;20031;-66
2022/05/24 09:32:27;;;;;;;5.40;2.22;;;18.80;60.70;;;;;;5097490;28;20035;-66
2022/05/24 09:35:03;;;;;;;5.40;2.30;;;18.90;60.50;;;;;;5126299;28;20036;-66
2022/05/24 09:37:29;;;;;;;6.10;2.88;;;19.00;60.40;;;;;;5124277;28;20015;-66
2022/05/24 09:40:00;;;;;;;5.75;2.75;;;19.00;60.30;;;;;;5115430;28;20326;-66
2022/05/24 09:42:31;;;;;;;10.10;3.15;;;19.20;60.10;;;;;;5105400;28;20035;-66
2022/05/24 09:44:59;;;;;;;;;;;19.50;59.70;;;;;;5115240;28;20213;-67
2022/05/24 09:47:50;;;;;;;5.10;2.60;;;19.80;59.40;;;;;;5112261;27;19926;-66
2022/05/24 09:50:36;;;;;;;6.05;2.90;;;19.90;59.60;;;;;;5120994;27;20026;-65
2022/05/24 09:53:15;;;;;;;4.70;2.28;;;19.70;58.70;;;;;;5120221;27;20402;-66
2022/05/24 09:55:51;;;;;;;6.05;2.70;;;19.40;58.90;;;;;;5114117;28;20061;-65
2022/05/24 09:58:32;;;;;;;6.25;2.35;;;19.20;59.10;;;;;;5114558;28;20028;-67
2022/05/24 10:01:00;;;;;;;;;;;19.40;59.00;;;;;;5114876;28;20038;-67
2022/05/24 10:03:33;;;;;;;4.57;2.15;;;19.60;58.60;;;;;;5115238;28;20453;-67
2022/05/24 10:06:21;;;;;;;4.03;1.98;;;19.90;58.10;;;;;;5130563;27;20023;-67
2022/05/24 10:08:55;;;;;;;4.63;1.85;;;20.10;57.40;;;;;;5149809;27;20054;-66
2022/05/24 10:11:26;;;;;;;5.65;1.80;;;20.30;57.40;;;;;;5138133;27;20127;-66
2022/05/24 10:14:03;;;;;;;3.67;1.55;;;20.20;57.20;;;;;;5100135;28;20028;-67
2022/05/24 10:16:43;;;;;;;3.25;1.50;;;20.20;57.10;;;;;;5110982;27;20443;-66
2022/05/24 10:19:09;;;;;;;2.10;1.20;;;20.20;56.60;;;;;;5121633;27;20028;-66
2022/05/24 10:21:40;;;;;;;3.40;1.10;;;20.20;56.40;;;;;;5119273;27;20024;-66
2022/05/24 10:24:37;;;;;;;2.15;0.95;;;20.00;56.10;;;;;;5119654;27;20444;-66
2022/05/24 10:27:27;;;;;;;2.22;1.20;;;19.90;56.20;;;;;;5133185;27;20114;-66
2022/05/24 10:30:01;;;;;;;2.83;1.30;;;19.80;56.40;;;;;;5137900;27;20035;-66
2022/05/24 10:39:11;;;;;;;2.65;1.35;;;19.00;58.60;;;;;;5121166;27;20475;-65
2022/05/24 10:42:00;;;;;;;2.70;1.27;;;18.90;59.70;;;;;;5125887;27;20504;-66
2022/05/24 10:44:46;;;;;;;5.75;2.63;;;19.20;60.00;;;;;;5120316;27;20043;-70
2022/05/24 10:47:40;;;;;;;5.82;2.50;;;19.30;59.90;;;;;;5122074;27;20340;-67
2022/05/24 10:50:15;;;;;;;5.03;2.20;;;19.30;60.00;;;;;;5120470;27;20023;-66
2022/05/24 10:53:09;;;;;;;6.13;2.30;;;19.20;60.60;;;;;;5133076;27;20028;-69
2022/05/24 10:55:39;;;;;;;4.18;1.63;;;19.10;60.10;;;;;;5137888;27;20042;-67
2022/05/24 10:58:11;;;;;;;3.03;1.42;;;18.90;60.30;;;;;;5119596;27;20448;-66
2022/05/24 11:00:54;;;;;;;3.53;1.30;;;19.10;60.30;;;;;;5115068;28;20023;-66
2022/05/24 11:03:33;;;;;;;2.75;1.27;;;19.50;59.90;;;;;;5123643;27;20034;-66
2022/05/24 11:06:05;;;;;;;4.10;1.20;;;19.90;59.00;;;;;;5136938;27;20023;-67
2022/05/24 11:08:41;;;;;;;1.92;1.00;;;20.20;58.00;;;;;;5118093;27;20031;-66
2022/05/24 11:11:19;;;;;;;2.65;0.93;;;20.40;57.40;;;;;;5116099;27;20032;-66
2022/05/24 11:13:52;;;;;;;2.30;1.27;;;20.70;56.90;;;;;;5121269;27;20039;-66
2022/05/24 11:16:40;;;;;;;2.88;1.30;;;20.70;56.50;;;;;;5116748;27;20023;-66
2022/05/24 11:19:16;;;;;;;1.88;1.33;;;20.60;56.40;;;;;;5115982;27;20107;-66
2022/05/24 11:22:19;;;;;;;2.72;1.30;;;20.70;56.40;;;;;;5119722;27;20019;-65
2022/05/24 11:25:12;;;;;;;2.90;1.20;;;20.90;55.70;;;;;;5127112;27;20103;-65
2022/05/24 11:27:41;;;;;;;5.45;1.40;;;20.90;55.40;;;;;;5134402;27;20031;-66
2022/05/24 11:30:16;;;;;;;3.72;1.15;;;20.70;55.50;;;;;;5136985;27;20078;-65
2022/05/24 11:32:50;;;;;;;3.85;1.27;;;20.40;56.10;;;;;;5125456;27;20031;-65
2022/05/24 11:35:19;;;;;;;3.78;1.05;;;20.20;56.40;;;;;;5115345;27;20023;-65
2022/05/24 11:37:47;;;;;;;2.90;1.10;;;19.90;56.80;;;;;;5121555;27;20035;-65
2022/05/24 11:40:31;;;;;;;2.55;1.10;;;19.60;57.20;;;;;;5115998;27;20103;-65
2022/05/24 11:43:21;;;;;;;3.33;1.10;;;19.40;57.30;;;;;;5113840;28;20046;-65
2022/05/24 11:45:54;;;;;;;1.63;0.80;;;19.30;57.60;;;;;;5114902;27;20096;-65
2022/05/24 11:48:20;;;;;;;1.02;0.65;;;19.10;57.70;;;;;;5116971;27;20388;-65
2022/05/24 11:50:50;;;;;;;3.22;0.93;;;19.00;57.90;;;;;;5117458;27;20046;-65
2022/05/24 11:53:15;;;;;;;2.30;0.88;;;18.90;58.10;;;;;;5118469;27;20356;-65
2022/05/24 11:55:41;;;;;;;2.47;0.90;;;18.80;58.30;;;;;;5115389;27;20035;-65
2022/05/24 11:58:23;;;;;;;4.28;1.00;;;18.70;58.60;;;;;;5134418;27;20140;-66
2022/05/24 12:00:56;;;;;;;1.25;0.80;;;18.60;58.60;;;;;;5137318;27;20023;-66
2022/05/24 12:09:13;;;;;;;2.05;0.90;;;18.30;59.20;;;;;;5116473;28;20328;-66
2022/05/24 12:11:39;;;;;;;3.65;1.00;;;18.50;59.30;;;;;;5115544;27;20444;-65
2022/05/24 12:14:17;;;;;;;2.38;0.80;;;18.70;59.30;;;;;;5101573;28;20054;-66
2022/05/24 12:17:08;;;;;;;2.25;0.98;;;18.90;58.80;;;;;;5116828;27;20059;-65
2022/05/24 12:19:42;;;;;;;3.17;1.00;;;19.00;58.50;;;;;;5116692;27;20040;-66
2022/05/24 12:22:14;;;;;;;2.70;1.00;;;19.20;58.00;;;;;;5128351;27;20042;-65
2022/05/24 12:24:40;;;;;;;1.70;1.00;;;19.40;57.80;;;;;;5128333;27;20027;-66
2022/05/24 12:27:32;;;;;;;1.40;0.90;;;19.60;57.50;;;;;;5124393;27;20398;-65
2022/05/24 12:30:03;;;;;;;2.45;1.30;;;19.70;56.70;;;;;;5119205;27;20471;-66
2022/05/24 12:32:33;;;;;;;;;;;19.80;56.80;;;;;;5103807;27;20110;-66
2022/05/24 12:35:12;;;;;;;4.20;1.33;;;19.90;56.80;;;;;;5131292;27;19911;-66
2022/05/24 12:37:44;;;;;;;3.45;1.30;;;19.80;56.70;;;;;;5134065;27;20039;-65
2022/05/24 12:40:14;;;;;;;4.65;1.65;;;19.80;56.60;;;;;;5133350;27;20042;-66
2022/05/24 12:42:48;;;;;;;3.58;1.50;;;19.70;56.90;;;;;;5124443;27;20088;-66
2022/05/24 12:45:20;;;;;;;3.42;1.30;;;19.60;57.50;;;;;;5118319;27;20087;-67
2022/05/24 12:47:50;;;;;;;4.43;1.13;;;19.60;58.00;;;;;;5131920;27;20104;-66
2022/05/24 12:50:38;;;;;;;3.35;1.30;;;19.60;58.70;;;;;;5123963;27;20442;-67
2022/05/24 12:53:13;;;;;;;3.40;1.25;;;19.60;58.80;;;;;;5117001;27;20090;-66
2022/05/24 12:55:56;;;;;;;4.22;1.30;;;19.60;59.00;;;;;;5114693;28;20023;-66
2022/05/24 12:58:24;;;;;;;2.88;1.05;;;19.50;59.20;;;;;;5107294;28;20053;-66
2022/05/24 13:00:50;;;;;;;3.13;1.10;;;19.50;59.10;;;;;;5116993;28;20039;-69
2022/05/24 13:03:23;;;;;;;2.90;1.02;;;19.60;58.90;;;;;;5127339;27;20023;-70
2022/05/24 13:06:00;;;;;;;1.92;0.85;;;19.70;58.50;;;;;;5126534;27;20016;-68
2022/05/24 13:08:25;;;;;;;3.17;1.13;;;19.70;58.10;;;;;;5116245;28;20033;-69
2022/05/24 13:10:52;;;;;;;2.30;1.10;;;19.70;57.10;;;;;;5132113;27;20024;-72
2022/05/24 13:13:22;;;;;;;3.22;1.00;;;19.70;56.70;;;;;;5119588;28;20119;-68
2022/05/24 13:15:53;;;;;;;1.80;0.80;;;19.70;55.90;;;;;;5114361;28;20103;-66
2022/05/24 13:18:21;;;;;;;;;;;19.70;55.90;;;;;;5114506;28;20034;-67
2022/05/24 13:20:55;;;;;;;3.67;1.20;;;19.70;55.90;;;;;;5127786;27;20328;-66
2022/05/24 13:23:40;;;;;;;3.30;1.30;;;19.70;55.40;;;;;;5120286;27;20073;-67
2022/05/24 13:26:05;;;;;;;3.75;1.23;;;19.70;55.10;;;;;;5124455;28;20031;-66
2022/05/24 13:28:51;;;;;;;2.35;1.13;;;19.80;55.30;;;;;;5115995;28;20027;-66
2022/05/24 13:34:17;;;;;;;2.13;1.10;;;19.80;55.30;;;;;;5113720;28;20061;-66
2022/05/24 13:36:47;;;;;;;2.83;1.10;;;19.70;55.20;;;;;;5115855;28;20417;-66
2022/05/24 13:39:38;;;;;;;5.30;1.23;;;19.60;55.20;;;;;;5120869;27;20039;-66
2022/05/24 13:42:10;;;;;;;1.95;1.00;;;19.50;55.00;;;;;;5120061;27;20095;-67